This is the latest recevied weather packets stored in our database for station/object DO1SC. If no packets are shown the sender has not sent any weather packets the latest 1 day(s).
| Time | Temp. | Humidity | Pressure | Rain* | Wind** | Luminosity | Snow |
|---|---|---|---|---|---|---|---|
| 1778014517 | 10.56° C | 96% | 1007.6 hPa | - | 1.34 m/s, 96° | 0 W/m² | - |
| 1778013932 | 10.56° C | 96% | 1007.6 hPa | - | 1.34 m/s, 114° | 0 W/m² | - |
| 1778013320 | 10.56° C | 96% | 1007.6 hPa | - | 0.89 m/s, 137° | 0 W/m² | - |
| 1778012733 | 10.56° C | 95% | 1007.5 hPa | - | 0.45 m/s, 109° | 0 W/m² | - |
| 1778012124 | 10.56° C | 95% | 1007.4 hPa | - | 0 m/s | 0 W/m² | - |
| 1778011535 | 11.11° C | 94% | 1007.1 hPa | - | 0.45 m/s, 105° | 0 W/m² | - |
| 1778010929 | 11.11° C | 93% | 1006.8 hPa | - | 0.45 m/s, 303° | 0 W/m² | - |
| 1778010317 | 11.11° C | 92% | 1006.7 hPa | - | 0 m/s | 0 W/m² | - |
| 1778009729 | 11.11° C | 91% | 1006.8 hPa | - | 0.89 m/s, 280° | 0 W/m² | - |
| 1778009120 | 11.11° C | 94% | 1006.9 hPa | - | 1.34 m/s, 277° | 0 W/m² | - |
| 1778008532 | 11.11° C | 95% | 1007.3 hPa | - | 0.45 m/s, 26° | 0 W/m² | - |
| 1778007936 | 11.11° C | 94% | 1007.6 hPa | - | 0.89 m/s, 56° | 0 W/m² | - |
| 1778007333 | 11.11° C | 94% | 1007.7 hPa | - | 0.45 m/s, 47° | 0 W/m² | - |
| 1778006724 | 11.11° C | 93% | 1007.7 hPa | - | 1.34 m/s, 102° | 0 W/m² | - |
| 1778006136 | 11.11° C | 92% | 1007.8 hPa | - | 0.89 m/s, 97° | 0 W/m² | - |
| 1778005528 | 11.67° C | 92% | 1008.1 hPa | - | 1.34 m/s, 108° | 0 W/m² | - |
| 1778004919 | 12.22° C | 88% | 1008.2 hPa | - | 0.89 m/s, 116° | 0 W/m² | - |
| 1778004330 | 13.89° C | 84% | 1008.1 hPa | - | 2.24 m/s, 116° | 0 W/m² | - |
| 1778003721 | 14.44° C | 88% | 1006.8 hPa | - | 1.34 m/s, 297° | 2 W/m² | - |
| 1778003133 | 14.44° C | 86% | 1006.8 hPa | - | 1.34 m/s, 307° | 5 W/m² | - |
| 1778002525 | 14.44° C | 85% | 1006.8 hPa | - | 1.34 m/s, 303° | 5 W/m² | - |
| 1778001936 | 15° C | 85% | 1006.8 hPa | - | 1.34 m/s, 294° | 4 W/m² | - |
| 1778001325 | 15° C | 84% | 1006.8 hPa | - | 2.68 m/s, 309° | 5 W/m² | - |
| 1778000736 | 15° C | 83% | 1006.9 hPa | - | 1.79 m/s, 314° | 34 W/m² | - |
| 1778000127 | 15° C | 83% | 1007 hPa | - | 1.79 m/s, 304° | 58 W/m² | - |
* Rain since midnight (hover to see other rain measurements)
** Current wind speed in m/s (hover to see current wind gust speed)